sensor_id;sensor_type;location;lat;lon;timestamp;temperature;humidity
54960;DHT22;40860;51.710;8.736;2022-10-28T00:02:01;14.20;99.80
54960;DHT22;40860;51.710;8.736;2022-10-28T00:06:06;14.10;99.80
54960;DHT22;40860;51.710;8.736;2022-10-28T00:10:09;14.00;99.90
54960;DHT22;40860;51.710;8.736;2022-10-28T00:14:12;14.00;99.90
54960;DHT22;40860;51.710;8.736;2022-10-28T00:18:17;14.10;99.90
54960;DHT22;40860;51.710;8.736;2022-10-28T00:22:19;14.20;99.90
54960;DHT22;40860;51.710;8.736;2022-10-28T00:26:23;14.10;99.90
54960;DHT22;40860;51.710;8.736;2022-10-28T00:30:27;14.10;99.90
54960;DHT22;40860;51.710;8.736;2022-10-28T00:34:36;14.20;99.90
54960;DHT22;40860;51.710;8.736;2022-10-28T00:38:39;14.40;99.90
54960;DHT22;40860;51.710;8.736;2022-10-28T00:42:42;14.50;99.90
54960;DHT22;40860;51.710;8.736;2022-10-28T00:46:48;14.50;99.90
54960;DHT22;40860;51.710;8.736;2022-10-28T00:50:53;14.60;99.90
54960;DHT22;40860;51.710;8.736;2022-10-28T00:54:58;14.60;99.90
54960;DHT22;40860;51.710;8.736;2022-10-28T00:59:09;14.70;99.90
54960;DHT22;40860;51.710;8.736;2022-10-28T01:03:13;14.70;99.80
54960;DHT22;40860;51.710;8.736;2022-10-28T01:07:18;14.70;99.90
54960;DHT22;40860;51.710;8.736;2022-10-28T01:11:35;14.60;99.90
54960;DHT22;40860;51.710;8.736;2022-10-28T01:15:47;14.60;99.90
54960;DHT22;40860;51.710;8.736;2022-10-28T01:24:44;14.50;99.90
54960;DHT22;40860;51.710;8.736;2022-10-28T01:29:22;14.60;99.90
54960;DHT22;40860;51.710;8.736;2022-10-28T01:33:33;14.60;99.90
54960;DHT22;40860;51.710;8.736;2022-10-28T01:37:42;14.60;99.90
54960;DHT22;40860;51.710;8.736;2022-10-28T01:41:53;14.70;99.90
54960;DHT22;40860;51.710;8.736;2022-10-28T01:46:01;14.70;99.90
54960;DHT22;40860;51.710;8.736;2022-10-28T01:50:10;14.70;99.90
54960;DHT22;40860;51.710;8.736;2022-10-28T01:54:18;14.80;99.90
54960;DHT22;40860;51.710;8.736;2022-10-28T01:58:26;14.70;99.90
54960;DHT22;40860;51.710;8.736;2022-10-28T02:02:31;14.60;99.90
54960;DHT22;40860;51.710;8.736;2022-10-28T02:06:37;14.50;99.90
54960;DHT22;40860;51.710;8.736;2022-10-28T02:10:46;14.50;99.90
54960;DHT22;40860;51.710;8.736;2022-10-28T02:19:36;14.40;99.90
54960;DHT22;40860;51.710;8.736;2022-10-28T02:23:44;14.50;99.90
54960;DHT22;40860;51.710;8.736;2022-10-28T02:27:53;14.50;99.90
54960;DHT22;40860;51.710;8.736;2022-10-28T02:32:01;14.50;99.90
54960;DHT22;40860;51.710;8.736;2022-10-28T02:36:09;14.60;99.90
54960;DHT22;40860;51.710;8.736;2022-10-28T02:40:20;14.80;99.90
54960;DHT22;40860;51.710;8.736;2022-10-28T02:44:27;14.90;99.90
54960;DHT22;40860;51.710;8.736;2022-10-28T02:48:34;15.00;99.90
54960;DHT22;40860;51.710;8.736;2022-10-28T02:52:40;15.10;99.80
54960;DHT22;40860;51.710;8.736;2022-10-28T02:56:48;15.10;99.60
54960;DHT22;40860;51.710;8.736;2022-10-28T03:00:52;15.20;99.50
54960;DHT22;40860;51.710;8.736;2022-10-28T03:04:55;15.30;99.50
54960;DHT22;40860;51.710;8.736;2022-10-28T03:08:58;15.30;99.50
54960;DHT22;40860;51.710;8.736;2022-10-28T03:13:02;15.30;99.40
54960;DHT22;40860;51.710;8.736;2022-10-28T03:17:05;15.40;99.30
54960;DHT22;40860;51.710;8.736;2022-10-28T03:21:09;15.70;98.40
54960;DHT22;40860;51.710;8.736;2022-10-28T03:25:12;16.20;97.30
54960;DHT22;40860;51.710;8.736;2022-10-28T03:29:16;16.40;96.80
54960;DHT22;40860;51.710;8.736;2022-10-28T03:33:19;16.70;95.70
54960;DHT22;40860;51.710;8.736;2022-10-28T03:37:21;16.80;95.20
54960;DHT22;40860;51.710;8.736;2022-10-28T03:41:24;17.00;94.50
54960;DHT22;40860;51.710;8.736;2022-10-28T03:45:29;17.30;93.80
54960;DHT22;40860;51.710;8.736;2022-10-28T03:49:31;17.50;93.30
54960;DHT22;40860;51.710;8.736;2022-10-28T03:53:34;17.50;93.10
54960;DHT22;40860;51.710;8.736;2022-10-28T03:57:37;17.50;93.20
54960;DHT22;40860;51.710;8.736;2022-10-28T04:01:42;17.40;93.30
54960;DHT22;40860;51.710;8.736;2022-10-28T04:05:46;17.50;93.10
54960;DHT22;40860;51.710;8.736;2022-10-28T04:09:49;17.50;92.80
54960;DHT22;40860;51.710;8.736;2022-10-28T04:13:52;17.50;92.70
54960;DHT22;40860;51.710;8.736;2022-10-28T04:17:56;17.60;92.30
54960;DHT22;40860;51.710;8.736;2022-10-28T04:21:59;17.70;91.80
54960;DHT22;40860;51.710;8.736;2022-10-28T04:26:02;17.80;91.20
54960;DHT22;40860;51.710;8.736;2022-10-28T04:30:06;17.90;90.80
54960;DHT22;40860;51.710;8.736;2022-10-28T04:34:11;18.10;90.00
54960;DHT22;40860;51.710;8.736;2022-10-28T04:38:14;18.20;89.70
54960;DHT22;40860;51.710;8.736;2022-10-28T04:42:16;18.40;88.60
54960;DHT22;40860;51.710;8.736;2022-10-28T04:46:19;18.50;88.10
54960;DHT22;40860;51.710;8.736;2022-10-28T04:50:23;18.50;87.80
54960;DHT22;40860;51.710;8.736;2022-10-28T04:54:27;18.50;87.00
54960;DHT22;40860;51.710;8.736;2022-10-28T04:58:30;18.60;87.10
54960;DHT22;40860;51.710;8.736;2022-10-28T05:02:33;18.60;87.30
54960;DHT22;40860;51.710;8.736;2022-10-28T05:06:37;18.60;86.90
54960;DHT22;40860;51.710;8.736;2022-10-28T05:10:40;18.60;86.80
54960;DHT22;40860;51.710;8.736;2022-10-28T05:14:43;18.70;86.60
54960;DHT22;40860;51.710;8.736;2022-10-28T05:18:48;18.80;86.70
54960;DHT22;40860;51.710;8.736;2022-10-28T05:22:53;18.70;86.50
54960;DHT22;40860;51.710;8.736;2022-10-28T05:26:58;18.60;87.00
54960;DHT22;40860;51.710;8.736;2022-10-28T05:31:01;18.60;87.30
54960;DHT22;40860;51.710;8.736;2022-10-28T05:35:04;18.60;87.30
54960;DHT22;40860;51.710;8.736;2022-10-28T05:39:08;18.60;87.70
54960;DHT22;40860;51.710;8.736;2022-10-28T05:43:13;18.50;88.10
54960;DHT22;40860;51.710;8.736;2022-10-28T05:47:16;18.40;88.60
54960;DHT22;40860;51.710;8.736;2022-10-28T05:51:20;18.20;89.60
54960;DHT22;40860;51.710;8.736;2022-10-28T05:55:26;18.10;90.00
54960;DHT22;40860;51.710;8.736;2022-10-28T05:59:30;18.00;90.30
54960;DHT22;40860;51.710;8.736;2022-10-28T06:03:32;17.90;90.40
54960;DHT22;40860;51.710;8.736;2022-10-28T06:07:36;17.80;90.80
54960;DHT22;40860;51.710;8.736;2022-10-28T06:11:40;17.60;91.00
54960;DHT22;40860;51.710;8.736;2022-10-28T06:15:43;17.40;91.70
54960;DHT22;40860;51.710;8.736;2022-10-28T06:19:46;17.20;92.10
54960;DHT22;40860;51.710;8.736;2022-10-28T06:23:48;17.10;92.50
54960;DHT22;40860;51.710;8.736;2022-10-28T06:27:54;17.00;92.70
54960;DHT22;40860;51.710;8.736;2022-10-28T06:31:58;16.90;93.10
54960;DHT22;40860;51.710;8.736;2022-10-28T06:36:01;16.80;93.30
54960;DHT22;40860;51.710;8.736;2022-10-28T06:40:05;16.80;93.60
54960;DHT22;40860;51.710;8.736;2022-10-28T06:44:09;16.70;93.90
54960;DHT22;40860;51.710;8.736;2022-10-28T06:48:12;16.60;94.00
54960;DHT22;40860;51.710;8.736;2022-10-28T06:52:15;16.60;94.60
54960;DHT22;40860;51.710;8.736;2022-10-28T06:56:18;16.70;94.20
54960;DHT22;40860;51.710;8.736;2022-10-28T07:00:22;16.70;94.40
54960;DHT22;40860;51.710;8.736;2022-10-28T07:04:29;16.70;94.40
54960;DHT22;40860;51.710;8.736;2022-10-28T07:08:32;17.00;94.00
54960;DHT22;40860;51.710;8.736;2022-10-28T07:12:35;17.30;93.60
54960;DHT22;40860;51.710;8.736;2022-10-28T07:16:40;17.50;93.30
54960;DHT22;40860;51.710;8.736;2022-10-28T07:20:43;17.60;93.00
54960;DHT22;40860;51.710;8.736;2022-10-28T07:24:46;17.70;92.80
54960;DHT22;40860;51.710;8.736;2022-10-28T07:28:49;17.80;92.70
54960;DHT22;40860;51.710;8.736;2022-10-28T07:32:54;17.80;92.50
54960;DHT22;40860;51.710;8.736;2022-10-28T07:36:57;17.80;92.50
54960;DHT22;40860;51.710;8.736;2022-10-28T07:41:03;17.90;92.40
54960;DHT22;40860;51.710;8.736;2022-10-28T07:45:07;17.90;92.40
54960;DHT22;40860;51.710;8.736;2022-10-28T07:49:11;17.90;92.50
54960;DHT22;40860;51.710;8.736;2022-10-28T07:53:14;18.00;92.50
54960;DHT22;40860;51.710;8.736;2022-10-28T07:57:17;18.10;92.30
54960;DHT22;40860;51.710;8.736;2022-10-28T08:01:20;18.20;92.60
54960;DHT22;40860;51.710;8.736;2022-10-28T08:05:24;18.30;92.40
54960;DHT22;40860;51.710;8.736;2022-10-28T08:09:27;18.40;92.20
54960;DHT22;40860;51.710;8.736;2022-10-28T08:13:31;18.60;92.00
54960;DHT22;40860;51.710;8.736;2022-10-28T08:17:38;18.80;91.50
54960;DHT22;40860;51.710;8.736;2022-10-28T08:21:42;18.80;91.40
54960;DHT22;40860;51.710;8.736;2022-10-28T08:25:48;18.80;91.60
54960;DHT22;40860;51.710;8.736;2022-10-28T08:29:51;18.80;91.90
54960;DHT22;40860;51.710;8.736;2022-10-28T08:33:54;19.00;91.10
54960;DHT22;40860;51.710;8.736;2022-10-28T08:37:58;19.30;91.30
54960;DHT22;40860;51.710;8.736;2022-10-28T08:42:14;19.40;91.10
54960;DHT22;40860;51.710;8.736;2022-10-28T08:46:23;19.60;91.10
54960;DHT22;40860;51.710;8.736;2022-10-28T08:50:31;19.70;90.20
54960;DHT22;40860;51.710;8.736;2022-10-28T08:54:43;19.80;90.20
54960;DHT22;40860;51.710;8.736;2022-10-28T08:58:48;19.90;90.00
54960;DHT22;40860;51.710;8.736;2022-10-28T09:03:04;20.10;89.90
54960;DHT22;40860;51.710;8.736;2022-10-28T09:07:15;20.40;90.50
54960;DHT22;40860;51.710;8.736;2022-10-28T09:11:42;21.00;89.50
54960;DHT22;40860;51.710;8.736;2022-10-28T09:15:56;21.60;86.40
54960;DHT22;40860;51.710;8.736;2022-10-28T09:20:07;22.10;83.90
54960;DHT22;40860;51.710;8.736;2022-10-28T09:24:17;22.50;82.80
54960;DHT22;40860;51.710;8.736;2022-10-28T09:28:33;22.70;79.00
54960;DHT22;40860;51.710;8.736;2022-10-28T09:32:42;22.90;79.10
54960;DHT22;40860;51.710;8.736;2022-10-28T09:36:50;23.20;76.40
54960;DHT22;40860;51.710;8.736;2022-10-28T09:40:58;23.20;77.90
54960;DHT22;40860;51.710;8.736;2022-10-28T09:45:10;23.40;77.60
54960;DHT22;40860;51.710;8.736;2022-10-28T09:49:18;23.60;74.50
54960;DHT22;40860;51.710;8.736;2022-10-28T09:53:31;23.80;73.50
54960;DHT22;40860;51.710;8.736;2022-10-28T09:57:37;23.70;71.50
54960;DHT22;40860;51.710;8.736;2022-10-28T10:01:42;23.60;71.30
54960;DHT22;40860;51.710;8.736;2022-10-28T10:05:49;23.40;71.80
54960;DHT22;40860;51.710;8.736;2022-10-28T10:09:52;23.20;71.50
54960;DHT22;40860;51.710;8.736;2022-10-28T10:13:57;23.10;72.00
54960;DHT22;40860;51.710;8.736;2022-10-28T10:18:04;23.10;73.40
54960;DHT22;40860;51.710;8.736;2022-10-28T10:22:07;23.20;74.30
54960;DHT22;40860;51.710;8.736;2022-10-28T10:26:12;23.40;74.00
54960;DHT22;40860;51.710;8.736;2022-10-28T10:30:19;23.60;72.10
54960;DHT22;40860;51.710;8.736;2022-10-28T10:34:26;23.80;71.40
54960;DHT22;40860;51.710;8.736;2022-10-28T10:38:31;23.80;71.10
54960;DHT22;40860;51.710;8.736;2022-10-28T10:42:34;23.80;71.40
54960;DHT22;40860;51.710;8.736;2022-10-28T10:47:16;23.80;69.90
54960;DHT22;40860;51.710;8.736;2022-10-28T10:51:23;23.90;71.00
54960;DHT22;40860;51.710;8.736;2022-10-28T10:55:31;23.90;70.20
54960;DHT22;40860;51.710;8.736;2022-10-28T10:59:36;23.80;69.90
54960;DHT22;40860;51.710;8.736;2022-10-28T11:03:50;23.70;70.50
54960;DHT22;40860;51.710;8.736;2022-10-28T11:07:57;23.70;70.20
54960;DHT22;40860;51.710;8.736;2022-10-28T11:12:14;23.90;70.70
54960;DHT22;40860;51.710;8.736;2022-10-28T11:16:19;24.10;69.70
54960;DHT22;40860;51.710;8.736;2022-10-28T11:20:23;24.30;68.90
54960;DHT22;40860;51.710;8.736;2022-10-28T11:24:42;24.50;68.10
54960;DHT22;40860;51.710;8.736;2022-10-28T11:28:58;24.70;65.80
54960;DHT22;40860;51.710;8.736;2022-10-28T11:33:09;24.90;64.10
54960;DHT22;40860;51.710;8.736;2022-10-28T11:37:40;25.00;62.70
54960;DHT22;40860;51.710;8.736;2022-10-28T11:41:59;25.20;61.50
54960;DHT22;40860;51.710;8.736;2022-10-28T11:46:10;25.30;61.40
54960;DHT22;40860;51.710;8.736;2022-10-28T11:50:26;25.30;62.90
54960;DHT22;40860;51.710;8.736;2022-10-28T11:54:44;25.30;61.40
54960;DHT22;40860;51.710;8.736;2022-10-28T11:59:02;25.40;59.80
54960;DHT22;40860;51.710;8.736;2022-10-28T12:08:02;25.40;58.80
54960;DHT22;40860;51.710;8.736;2022-10-28T12:12:14;25.40;59.50
54960;DHT22;40860;51.710;8.736;2022-10-28T12:16:27;25.50;60.70
54960;DHT22;40860;51.710;8.736;2022-10-28T12:20:36;25.60;58.90
54960;DHT22;40860;51.710;8.736;2022-10-28T12:24:43;25.60;57.80
54960;DHT22;40860;51.710;8.736;2022-10-28T12:28:50;25.50;56.90
54960;DHT22;40860;51.710;8.736;2022-10-28T12:32:59;25.50;57.50
54960;DHT22;40860;51.710;8.736;2022-10-28T12:37:06;25.50;58.90
54960;DHT22;40860;51.710;8.736;2022-10-28T12:41:13;25.40;57.90
54960;DHT22;40860;51.710;8.736;2022-10-28T12:45:19;25.40;58.10
54960;DHT22;40860;51.710;8.736;2022-10-28T12:49:30;25.20;58.00
54960;DHT22;40860;51.710;8.736;2022-10-28T12:53:43;25.10;58.70
54960;DHT22;40860;51.710;8.736;2022-10-28T12:57:52;24.90;59.00
54960;DHT22;40860;51.710;8.736;2022-10-28T13:01:57;24.90;61.00
54960;DHT22;40860;51.710;8.736;2022-10-28T13:06:26;24.70;63.00
54960;DHT22;40860;51.710;8.736;2022-10-28T13:10:38;24.60;64.00
54960;DHT22;40860;51.710;8.736;2022-10-28T13:15:03;24.60;61.50
54960;DHT22;40860;51.710;8.736;2022-10-28T13:19:23;24.60;61.70
54960;DHT22;40860;51.710;8.736;2022-10-28T13:23:35;24.50;63.60
54960;DHT22;40860;51.710;8.736;2022-10-28T13:27:41;24.40;62.70
54960;DHT22;40860;51.710;8.736;2022-10-28T13:31:45;24.50;63.50
54960;DHT22;40860;51.710;8.736;2022-10-28T13:35:48;24.40;65.10
54960;DHT22;40860;51.710;8.736;2022-10-28T13:39:52;24.40;66.20
54960;DHT22;40860;51.710;8.736;2022-10-28T13:44:26;24.30;66.50
54960;DHT22;40860;51.710;8.736;2022-10-28T13:48:46;24.30;65.50
54960;DHT22;40860;51.710;8.736;2022-10-28T13:57:46;24.30;69.20
54960;DHT22;40860;51.710;8.736;2022-10-28T14:01:55;24.40;67.10
54960;DHT22;40860;51.710;8.736;2022-10-28T14:06:29;24.40;67.60
54960;DHT22;40860;51.710;8.736;2022-10-28T14:10:36;24.40;66.70
54960;DHT22;40860;51.710;8.736;2022-10-28T14:14:59;24.40;64.90
54960;DHT22;40860;51.710;8.736;2022-10-28T14:19:12;24.40;64.30
54960;DHT22;40860;51.710;8.736;2022-10-28T14:27:53;24.10;64.60
54960;DHT22;40860;51.710;8.736;2022-10-28T14:36:44;24.00;64.90
54960;DHT22;40860;51.710;8.736;2022-10-28T14:41:05;23.90;65.80
54960;DHT22;40860;51.710;8.736;2022-10-28T14:45:22;23.80;66.10
54960;DHT22;40860;51.710;8.736;2022-10-28T14:49:30;23.70;67.30
54960;DHT22;40860;51.710;8.736;2022-10-28T14:53:34;23.50;68.10
54960;DHT22;40860;51.710;8.736;2022-10-28T14:57:38;23.40;68.90
54960;DHT22;40860;51.710;8.736;2022-10-28T15:01:51;23.30;69.70
54960;DHT22;40860;51.710;8.736;2022-10-28T15:06:02;23.20;70.00
54960;DHT22;40860;51.710;8.736;2022-10-28T15:10:24;23.10;70.80
54960;DHT22;40860;51.710;8.736;2022-10-28T15:14:33;22.90;73.20
54960;DHT22;40860;51.710;8.736;2022-10-28T15:18:45;22.60;76.50
54960;DHT22;40860;51.710;8.736;2022-10-28T15:22:50;22.40;76.50
54960;DHT22;40860;51.710;8.736;2022-10-28T15:26:54;22.20;77.80
54960;DHT22;40860;51.710;8.736;2022-10-28T15:30:57;22.00;78.90
54960;DHT22;40860;51.710;8.736;2022-10-28T15:35:37;21.80;80.70
54960;DHT22;40860;51.710;8.736;2022-10-28T15:39:41;21.70;82.00
54960;DHT22;40860;51.710;8.736;2022-10-28T15:43:53;21.40;83.40
54960;DHT22;40860;51.710;8.736;2022-10-28T15:47:57;21.30;83.80
54960;DHT22;40860;51.710;8.736;2022-10-28T15:52:19;21.20;84.10
54960;DHT22;40860;51.710;8.736;2022-10-28T15:56:24;21.10;84.70
54960;DHT22;40860;51.710;8.736;2022-10-28T16:00:28;20.90;85.40
54960;DHT22;40860;51.710;8.736;2022-10-28T16:04:41;20.70;85.80
54960;DHT22;40860;51.710;8.736;2022-10-28T16:08:45;20.60;86.80
54960;DHT22;40860;51.710;8.736;2022-10-28T16:12:49;20.40;87.40
54960;DHT22;40860;51.710;8.736;2022-10-28T16:16:52;20.30;88.00
54960;DHT22;40860;51.710;8.736;2022-10-28T16:20:59;20.10;88.40
54960;DHT22;40860;51.710;8.736;2022-10-28T16:25:09;20.00;88.80
54960;DHT22;40860;51.710;8.736;2022-10-28T16:29:14;19.90;89.30
54960;DHT22;40860;51.710;8.736;2022-10-28T16:33:17;19.80;88.60
54960;DHT22;40860;51.710;8.736;2022-10-28T16:37:22;19.80;88.40
54960;DHT22;40860;51.710;8.736;2022-10-28T16:41:26;19.70;88.00
54960;DHT22;40860;51.710;8.736;2022-10-28T16:45:30;19.70;87.80
54960;DHT22;40860;51.710;8.736;2022-10-28T16:49:33;19.60;87.70
54960;DHT22;40860;51.710;8.736;2022-10-28T16:53:36;19.50;87.50
54960;DHT22;40860;51.710;8.736;2022-10-28T16:57:39;19.50;87.20
54960;DHT22;40860;51.710;8.736;2022-10-28T17:01:43;19.50;86.60
54960;DHT22;40860;51.710;8.736;2022-10-28T17:05:47;19.50;86.30
54960;DHT22;40860;51.710;8.736;2022-10-28T17:09:49;19.50;85.80
54960;DHT22;40860;51.710;8.736;2022-10-28T17:13:53;19.50;85.40
54960;DHT22;40860;51.710;8.736;2022-10-28T17:17:57;19.50;85.40
54960;DHT22;40860;51.710;8.736;2022-10-28T17:22:00;19.50;85.40
54960;DHT22;40860;51.710;8.736;2022-10-28T17:26:09;19.50;85.20
54960;DHT22;40860;51.710;8.736;2022-10-28T17:30:13;19.50;85.10
54960;DHT22;40860;51.710;8.736;2022-10-28T17:34:18;19.50;84.90
54960;DHT22;40860;51.710;8.736;2022-10-28T17:38:21;19.50;84.40
54960;DHT22;40860;51.710;8.736;2022-10-28T17:42:24;19.50;84.40
54960;DHT22;40860;51.710;8.736;2022-10-28T17:46:27;19.50;84.30
54960;DHT22;40860;51.710;8.736;2022-10-28T17:50:31;19.50;84.20
54960;DHT22;40860;51.710;8.736;2022-10-28T17:54:33;19.40;85.10
54960;DHT22;40860;51.710;8.736;2022-10-28T17:58:36;19.30;84.90
54960;DHT22;40860;51.710;8.736;2022-10-28T18:02:39;19.30;85.30
54960;DHT22;40860;51.710;8.736;2022-10-28T18:06:43;19.20;85.60
54960;DHT22;40860;51.710;8.736;2022-10-28T18:10:50;19.10;86.00
54960;DHT22;40860;51.710;8.736;2022-10-28T18:14:53;19.10;86.30
54960;DHT22;40860;51.710;8.736;2022-10-28T18:18:56;19.00;86.60
54960;DHT22;40860;51.710;8.736;2022-10-28T18:23:05;18.90;87.00
54960;DHT22;40860;51.710;8.736;2022-10-28T18:27:07;18.80;87.60
54960;DHT22;40860;51.710;8.736;2022-10-28T18:31:12;18.70;87.90
54960;DHT22;40860;51.710;8.736;2022-10-28T18:35:15;18.60;88.60
54960;DHT22;40860;51.710;8.736;2022-10-28T18:39:19;18.50;88.60
54960;DHT22;40860;51.710;8.736;2022-10-28T18:43:22;18.40;89.30
54960;DHT22;40860;51.710;8.736;2022-10-28T18:47:25;18.20;90.20
54960;DHT22;40860;51.710;8.736;2022-10-28T18:51:28;18.10;90.70
54960;DHT22;40860;51.710;8.736;2022-10-28T18:55:33;18.00;91.00
54960;DHT22;40860;51.710;8.736;2022-10-28T18:59:36;17.80;91.70
54960;DHT22;40860;51.710;8.736;2022-10-28T19:04:00;17.70;91.50
54960;DHT22;40860;51.710;8.736;2022-10-28T19:08:04;17.50;92.00
54960;DHT22;40860;51.710;8.736;2022-10-28T19:12:09;17.40;92.20
54960;DHT22;40860;51.710;8.736;2022-10-28T19:16:11;17.30;92.30
54960;DHT22;40860;51.710;8.736;2022-10-28T19:20:15;17.30;92.40
54960;DHT22;40860;51.710;8.736;2022-10-28T19:24:18;17.20;92.70
54960;DHT22;40860;51.710;8.736;2022-10-28T19:28:22;17.10;92.80
54960;DHT22;40860;51.710;8.736;2022-10-28T19:32:25;17.10;93.20
54960;DHT22;40860;51.710;8.736;2022-10-28T19:36:28;17.00;93.30
54960;DHT22;40860;51.710;8.736;2022-10-28T19:40:31;16.90;93.30
54960;DHT22;40860;51.710;8.736;2022-10-28T19:44:35;16.90;93.40
54960;DHT22;40860;51.710;8.736;2022-10-28T19:48:39;16.90;93.60
54960;DHT22;40860;51.710;8.736;2022-10-28T19:52:42;16.80;93.60
54960;DHT22;40860;51.710;8.736;2022-10-28T19:56:45;16.70;94.10
54960;DHT22;40860;51.710;8.736;2022-10-28T20:29:21;16.60;94.70
54960;DHT22;40860;51.710;8.736;2022-10-28T20:33:26;16.60;95.00
54960;DHT22;40860;51.710;8.736;2022-10-28T20:37:29;16.60;94.80
54960;DHT22;40860;51.710;8.736;2022-10-28T20:41:33;16.60;94.90
54960;DHT22;40860;51.710;8.736;2022-10-28T20:45:36;16.50;94.90
54960;DHT22;40860;51.710;8.736;2022-10-28T20:49:40;16.40;95.00
54960;DHT22;40860;51.710;8.736;2022-10-28T20:53:43;16.30;95.50
54960;DHT22;40860;51.710;8.736;2022-10-28T20:57:46;16.30;95.40
54960;DHT22;40860;51.710;8.736;2022-10-28T21:01:49;16.30;95.60
54960;DHT22;40860;51.710;8.736;2022-10-28T21:05:53;16.30;95.70
54960;DHT22;40860;51.710;8.736;2022-10-28T21:09:56;16.20;95.60
54960;DHT22;40860;51.710;8.736;2022-10-28T21:14:00;16.20;95.80
54960;DHT22;40860;51.710;8.736;2022-10-28T21:18:04;16.30;95.70
54960;DHT22;40860;51.710;8.736;2022-10-28T21:22:08;16.30;95.80
54960;DHT22;40860;51.710;8.736;2022-10-28T21:26:12;16.30;95.80
54960;DHT22;40860;51.710;8.736;2022-10-28T21:30:15;16.40;95.80
54960;DHT22;40860;51.710;8.736;2022-10-28T21:34:18;16.40;95.70
54960;DHT22;40860;51.710;8.736;2022-10-28T21:38:22;16.50;95.60
54960;DHT22;40860;51.710;8.736;2022-10-28T21:42:25;16.50;95.60
54960;DHT22;40860;51.710;8.736;2022-10-28T21:46:28;16.50;95.60
54960;DHT22;40860;51.710;8.736;2022-10-28T21:50:31;16.50;95.70
54960;DHT22;40860;51.710;8.736;2022-10-28T21:54:35;16.50;95.50
54960;DHT22;40860;51.710;8.736;2022-10-28T21:58:38;16.50;95.60
54960;DHT22;40860;51.710;8.736;2022-10-28T22:02:41;16.40;95.70
54960;DHT22;40860;51.710;8.736;2022-10-28T22:06:44;16.40;95.70
54960;DHT22;40860;51.710;8.736;2022-10-28T22:10:57;16.40;95.80
54960;DHT22;40860;51.710;8.736;2022-10-28T22:15:00;16.30;95.70
54960;DHT22;40860;51.710;8.736;2022-10-28T22:19:05;16.20;96.00
54960;DHT22;40860;51.710;8.736;2022-10-28T22:23:08;16.20;96.00
54960;DHT22;40860;51.710;8.736;2022-10-28T22:27:13;16.20;96.00
54960;DHT22;40860;51.710;8.736;2022-10-28T22:31:17;16.30;96.00
54960;DHT22;40860;51.710;8.736;2022-10-28T22:35:20;16.40;95.90
54960;DHT22;40860;51.710;8.736;2022-10-28T22:39:23;16.40;95.90
54960;DHT22;40860;51.710;8.736;2022-10-28T22:43:27;16.40;96.00
54960;DHT22;40860;51.710;8.736;2022-10-28T22:47:30;16.50;95.90
54960;DHT22;40860;51.710;8.736;2022-10-28T22:51:33;16.50;95.90
54960;DHT22;40860;51.710;8.736;2022-10-28T22:55:35;16.50;95.80
54960;DHT22;40860;51.710;8.736;2022-10-28T22:59:39;16.50;95.80
54960;DHT22;40860;51.710;8.736;2022-10-28T23:03:44;16.40;95.90
54960;DHT22;40860;51.710;8.736;2022-10-28T23:07:47;16.40;95.90
54960;DHT22;40860;51.710;8.736;2022-10-28T23:11:50;16.30;96.00
54960;DHT22;40860;51.710;8.736;2022-10-28T23:15:54;16.30;96.10
54960;DHT22;40860;51.710;8.736;2022-10-28T23:19:56;16.30;96.20
54960;DHT22;40860;51.710;8.736;2022-10-28T23:24:00;16.30;96.10
54960;DHT22;40860;51.710;8.736;2022-10-28T23:28:03;16.30;96.40
54960;DHT22;40860;51.710;8.736;2022-10-28T23:32:08;16.30;96.40
54960;DHT22;40860;51.710;8.736;2022-10-28T23:36:11;16.40;96.60
54960;DHT22;40860;51.710;8.736;2022-10-28T23:40:15;16.40;96.40
54960;DHT22;40860;51.710;8.736;2022-10-28T23:44:18;16.50;96.50
54960;DHT22;40860;51.710;8.736;2022-10-28T23:48:22;16.60;96.50
54960;DHT22;40860;51.710;8.736;2022-10-28T23:52:25;16.60;96.50
54960;DHT22;40860;51.710;8.736;2022-10-28T23:56:28;16.70;96.30
